createdAt,value
2022-12-09T00:00:10.710Z,2.80
2022-12-09T00:02:40.805Z,2.90
2022-12-09T00:05:10.756Z,2.90
2022-12-09T00:07:39.405Z,3.00
2022-12-09T00:10:09.412Z,2.90
2022-12-09T00:15:07.786Z,2.80
2022-12-09T00:20:09.023Z,2.80
2022-12-09T00:25:07.267Z,2.70
2022-12-09T00:35:04.434Z,2.70
2022-12-09T00:37:35.046Z,2.70
2022-12-09T00:42:32.775Z,2.70
2022-12-09T00:54:58.193Z,2.70
2022-12-09T00:59:54.968Z,2.70
2022-12-09T01:04:53.236Z,2.70
2022-12-09T01:12:20.627Z,2.70
2022-12-09T01:22:14.960Z,2.70
2022-12-09T01:24:43.216Z,2.60
2022-12-09T01:29:41.333Z,2.60
2022-12-09T01:32:09.627Z,2.60
2022-12-09T01:42:05.421Z,2.50
2022-12-09T01:44:35.756Z,2.40
2022-12-09T01:47:05.622Z,2.40
2022-12-09T01:49:43.206Z,2.40
2022-12-09T01:52:20.303Z,2.40
2022-12-09T01:54:52.248Z,2.40
2022-12-09T02:02:23.739Z,2.30
2022-12-09T02:04:52.683Z,2.30
2022-12-09T02:09:53.538Z,2.20
2022-12-09T02:12:42.222Z,2.10
2022-12-09T02:15:19.155Z,2.10
2022-12-09T02:17:55.644Z,2.00
2022-12-09T02:20:30.598Z,1.90
2022-12-09T02:23:06.976Z,1.90
2022-12-09T02:25:44.594Z,1.90
2022-12-09T02:28:39.141Z,1.90
2022-12-09T02:31:25.705Z,1.80
2022-12-09T02:34:16.138Z,1.80
2022-12-09T02:36:59.020Z,1.70
2022-12-09T02:39:34.993Z,1.70
2022-12-09T02:42:07.789Z,1.70
2022-12-09T02:44:39.596Z,1.70
2022-12-09T02:47:14.598Z,1.60
2022-12-09T02:49:47.899Z,1.60
2022-12-09T02:57:25.398Z,1.40
2022-12-09T02:59:53.859Z,1.40
2022-12-09T03:02:29.477Z,1.30
2022-12-09T03:05:12.639Z,1.30
2022-12-09T03:07:47.932Z,1.20
2022-12-09T03:10:24.367Z,1.20
2022-12-09T03:13:03.866Z,1.20
2022-12-09T03:15:36.631Z,1.10
2022-12-09T03:18:11.819Z,1.10
2022-12-09T03:20:44.704Z,1.00
2022-12-09T03:23:17.452Z,0.90
2022-12-09T03:25:50.141Z,0.90
2022-12-09T03:28:22.934Z,0.80
2022-12-09T03:35:59.797Z,0.70
2022-12-09T03:38:34.363Z,0.70
2022-12-09T03:41:11.682Z,0.60
2022-12-09T03:43:48.203Z,0.60
2022-12-09T03:51:20.420Z,0.50
2022-12-09T03:53:52.804Z,0.40
2022-12-09T03:56:24.248Z,0.40
2022-12-09T03:58:56.119Z,0.50
2022-12-09T04:01:27.349Z,0.40
2022-12-09T04:03:58.652Z,0.40
2022-12-09T04:06:29.156Z,0.40
2022-12-09T04:16:29.523Z,0.30
2022-12-09T04:26:25.791Z,0.20
2022-12-09T04:31:22.949Z,0.20
2022-12-09T04:36:21.883Z,0.10
2022-12-09T04:41:22.856Z,0.10
2022-12-09T04:46:20.434Z,-0.30
2022-12-09T04:51:18.311Z,0.00
2022-12-09T04:53:47.068Z,0.00
2022-12-09T04:56:19.773Z,0.00
2022-12-09T05:01:30.070Z,0.10
2022-12-09T05:06:29.677Z,0.10
2022-12-09T05:11:29.074Z,0.10
2022-12-09T05:18:56.204Z,0.20
2022-12-09T05:26:24.437Z,0.30
2022-12-09T05:28:54.311Z,0.30
2022-12-09T05:31:25.303Z,0.30
2022-12-09T05:36:27.739Z,0.40
2022-12-09T05:38:56.594Z,0.40
2022-12-09T05:41:26.064Z,0.40
2022-12-09T05:43:56.064Z,0.40
2022-12-09T05:48:54.118Z,0.30
2022-12-09T05:51:26.353Z,0.30
2022-12-09T05:53:56.740Z,0.30
2022-12-09T05:56:26.740Z,0.20
2022-12-09T05:58:57.316Z,0.20
2022-12-09T06:03:56.734Z,0.20
2022-12-09T06:08:59.672Z,0.20
2022-12-09T06:13:59.687Z,0.20
2022-12-09T06:26:27.764Z,0.00
2022-12-09T06:28:57.540Z,0.00
2022-12-09T06:31:29.113Z,-0.10
2022-12-09T06:36:30.519Z,-0.10
2022-12-09T06:39:09.717Z,-0.10
2022-12-09T06:44:11.894Z,-0.10
2022-12-09T06:46:42.874Z,-0.10
2022-12-09T06:49:11.832Z,-0.10
2022-12-09T06:51:40.504Z,-0.10
2022-12-09T06:54:09.726Z,-0.10
2022-12-09T06:59:11.386Z,-0.10
2022-12-09T07:01:42.036Z,-0.10
2022-12-09T07:04:15.039Z,-0.10
2022-12-09T07:06:46.968Z,-0.10
2022-12-09T07:09:18.060Z,-0.20
2022-12-09T07:11:48.218Z,-0.20
2022-12-09T07:14:18.338Z,-0.20
2022-12-09T07:16:48.945Z,-0.20
2022-12-09T07:19:20.654Z,-0.30
2022-12-09T07:21:50.859Z,-0.30
2022-12-09T07:24:20.586Z,-0.30
2022-12-09T07:29:20.097Z,-0.20
2022-12-09T07:31:50.434Z,-0.20
2022-12-09T07:34:19.490Z,-0.20
2022-12-09T07:39:19.318Z,-0.20
2022-12-09T07:44:21.087Z,-0.20
2022-12-09T07:46:51.546Z,-0.20
2022-12-09T07:54:20.545Z,-0.20
2022-12-09T07:56:49.535Z,-0.20
2022-12-09T08:04:17.238Z,-0.10
2022-12-09T08:09:15.906Z,0.00
2022-12-09T08:16:44.139Z,0.20
2022-12-09T08:19:13.985Z,0.30
2022-12-09T08:21:47.281Z,0.30
2022-12-09T08:31:45.790Z,0.70
2022-12-09T08:36:45.937Z,0.90
2022-12-09T08:39:15.824Z,1.00
2022-12-09T08:41:45.652Z,1.10
2022-12-09T08:44:16.511Z,1.10
2022-12-09T08:46:50.985Z,1.20
2022-12-09T08:49:22.255Z,1.30
2022-12-09T08:51:54.500Z,1.40
2022-12-09T08:54:23.247Z,1.40
2022-12-09T08:56:55.609Z,1.50
2022-12-09T09:06:54.903Z,1.50
2022-12-09T09:09:23.751Z,1.60
2022-12-09T09:19:23.419Z,1.80
2022-12-09T09:24:25.380Z,2.00
2022-12-09T09:26:54.771Z,2.00
2022-12-09T09:29:24.831Z,2.20
2022-12-09T09:31:55.333Z,2.30
2022-12-09T09:34:25.396Z,2.40
2022-12-09T09:36:57.631Z,2.50
2022-12-09T09:42:04.410Z,2.80
2022-12-09T09:44:41.132Z,2.90
2022-12-09T09:47:18.258Z,2.90
2022-12-09T09:49:54.642Z,3.00
2022-12-09T09:52:27.645Z,3.00
2022-12-09T09:57:33.955Z,3.10
2022-12-09T10:00:19.281Z,3.20
2022-12-09T10:03:00.265Z,3.30
2022-12-09T10:05:33.620Z,3.50
2022-12-09T10:08:34.781Z,3.60
2022-12-09T10:11:18.188Z,3.80
2022-12-09T10:13:55.491Z,3.90
2022-12-09T10:16:30.908Z,4.10
2022-12-09T10:19:09.212Z,4.20
2022-12-09T10:21:44.302Z,4.30
2022-12-09T10:24:24.211Z,4.30
2022-12-09T10:27:06.887Z,4.40
2022-12-09T10:29:52.870Z,4.60
2022-12-09T10:32:25.729Z,4.80
2022-12-09T10:37:31.503Z,5.40
2022-12-09T10:40:30.980Z,5.80
2022-12-09T10:43:17.840Z,6.30
2022-12-09T10:48:44.599Z,6.80
2022-12-09T10:51:17.641Z,7.00
2022-12-09T10:53:49.688Z,7.20
2022-12-09T10:56:24.380Z,7.30
2022-12-09T10:59:12.117Z,7.40
2022-12-09T11:01:51.756Z,7.50
2022-12-09T11:04:28.595Z,7.60
2022-12-09T11:07:02.148Z,7.60
2022-12-09T11:09:33.498Z,7.80
2022-12-09T11:12:07.796Z,7.80
2022-12-09T11:14:39.862Z,7.70
2022-12-09T11:17:18.671Z,7.40
2022-12-09T11:19:51.813Z,7.30
2022-12-09T11:22:36.553Z,7.20
2022-12-09T11:25:27.224Z,7.10
2022-12-09T11:27:59.829Z,7.30
2022-12-09T11:30:32.637Z,7.50
2022-12-09T11:33:20.503Z,7.60
2022-12-09T11:36:01.873Z,7.70
2022-12-09T11:38:37.744Z,7.60
2022-12-09T11:41:37.332Z,7.50
2022-12-09T11:44:25.838Z,7.40
2022-12-09T11:47:01.550Z,7.50
2022-12-09T11:49:33.052Z,7.70
2022-12-09T11:52:07.488Z,7.80
2022-12-09T11:54:48.471Z,7.90
2022-12-09T11:57:28.303Z,8.10
2022-12-09T12:00:06.905Z,8.00
2022-12-09T12:02:41.964Z,7.90
2022-12-09T12:05:22.711Z,7.80
2022-12-09T12:08:02.241Z,7.70
2022-12-09T12:10:35.896Z,7.50
2022-12-09T12:13:16.266Z,7.40
2022-12-09T12:15:53.156Z,7.30
2022-12-09T12:18:23.706Z,7.20
2022-12-09T12:21:20.632Z,7.00
2022-12-09T12:24:44.781Z,6.80
2022-12-09T12:27:32.347Z,6.60
2022-12-09T12:30:09.405Z,6.50
2022-12-09T12:36:04.445Z,6.00
2022-12-09T12:38:51.522Z,5.80
2022-12-09T12:41:36.244Z,5.80
2022-12-09T12:44:52.978Z,5.60
2022-12-09T12:47:29.503Z,5.50
2022-12-09T12:50:25.131Z,5.40
2022-12-09T12:53:01.803Z,5.30
2022-12-09T12:55:48.866Z,5.20
2022-12-09T12:58:34.623Z,5.20
2022-12-09T13:01:13.769Z,5.00
2022-12-09T13:03:54.337Z,5.00
2022-12-09T13:06:36.466Z,4.90
2022-12-09T13:09:12.641Z,4.80
2022-12-09T13:11:56.263Z,4.80
2022-12-09T13:14:40.959Z,4.70
2022-12-09T13:17:14.900Z,4.70
2022-12-09T13:19:48.299Z,4.80
2022-12-09T13:22:23.027Z,4.70
2022-12-09T13:25:01.753Z,4.80
2022-12-09T13:27:38.457Z,4.80
2022-12-09T13:30:13.132Z,4.80
2022-12-09T13:33:05.490Z,4.80
2022-12-09T13:35:43.748Z,4.80
2022-12-09T13:38:33.597Z,4.80
2022-12-09T13:43:51.896Z,4.80
2022-12-09T13:46:23.645Z,4.90
2022-12-09T13:51:22.016Z,4.90
2022-12-09T13:54:02.245Z,4.80
2022-12-09T13:56:34.098Z,4.80
2022-12-09T13:59:42.658Z,4.70
2022-12-09T14:02:24.925Z,4.60
2022-12-09T14:05:06.586Z,4.50
2022-12-09T14:07:41.759Z,4.40
2022-12-09T14:10:39.890Z,4.40
2022-12-09T14:13:29.710Z,4.30
2022-12-09T14:16:32.930Z,4.30
2022-12-09T14:19:52.665Z,4.30
2022-12-09T14:22:40.092Z,4.20
2022-12-09T14:25:54.767Z,4.20
2022-12-09T14:29:01.006Z,4.20
2022-12-09T14:32:01.671Z,4.20
2022-12-09T14:34:43.853Z,4.10
2022-12-09T14:37:41.529Z,4.10
2022-12-09T14:40:51.880Z,4.10
2022-12-09T14:44:04.098Z,4.00
2022-12-09T14:46:35.066Z,4.00
2022-12-09T14:49:13.264Z,4.00
2022-12-09T14:51:47.914Z,3.90
2022-12-09T14:54:20.541Z,4.00
2022-12-09T14:56:52.216Z,3.90
2022-12-09T14:59:23.164Z,3.90
2022-12-09T15:01:57.887Z,3.80
2022-12-09T15:04:32.697Z,3.80
2022-12-09T15:07:13.773Z,3.70
2022-12-09T15:09:58.867Z,3.70
2022-12-09T15:12:32.246Z,3.70
2022-12-09T15:15:07.695Z,3.60
2022-12-09T15:17:43.191Z,3.60
2022-12-09T15:20:28.363Z,3.50
2022-12-09T15:23:00.140Z,3.50
2022-12-09T15:25:30.094Z,3.50
2022-12-09T15:28:02.057Z,3.50
2022-12-09T15:30:34.481Z,3.50
2022-12-09T15:33:03.737Z,3.40
2022-12-09T15:35:34.421Z,3.40
2022-12-09T15:38:07.387Z,3.40
2022-12-09T15:40:58.975Z,3.40
2022-12-09T15:43:27.575Z,3.40
2022-12-09T15:48:31.181Z,3.30
2022-12-09T15:51:02.877Z,3.30
2022-12-09T15:53:37.809Z,3.30
2022-12-09T15:56:14.085Z,3.30
2022-12-09T16:01:22.584Z,3.30
2022-12-09T16:03:53.827Z,3.30
2022-12-09T16:06:28.094Z,3.30
2022-12-09T16:11:40.699Z,3.30
2022-12-09T16:14:10.712Z,3.30
2022-12-09T16:16:47.366Z,3.20
2022-12-09T16:19:43.490Z,3.20
2022-12-09T16:22:22.524Z,3.30
2022-12-09T16:25:14.101Z,3.20
2022-12-09T16:27:49.915Z,3.30
2022-12-09T16:30:21.986Z,3.20
2022-12-09T16:32:53.394Z,3.20
2022-12-09T16:35:25.270Z,3.20
2022-12-09T16:38:20.803Z,3.20
2022-12-09T16:41:13.319Z,3.20
2022-12-09T16:44:03.920Z,3.20
2022-12-09T16:46:42.607Z,3.20
2022-12-09T16:51:40.739Z,3.10
2022-12-09T16:54:20.794Z,3.10
2022-12-09T16:56:51.243Z,3.10
2022-12-09T16:59:20.817Z,3.10
2022-12-09T17:01:49.172Z,3.10
2022-12-09T17:04:22.703Z,3.10
2022-12-09T17:06:50.965Z,3.10
2022-12-09T17:11:49.216Z,3.10
2022-12-09T17:14:18.239Z,3.10
2022-12-09T17:16:47.866Z,3.10
2022-12-09T17:19:16.155Z,3.10
2022-12-09T17:21:44.383Z,3.10
2022-12-09T17:24:13.289Z,3.10
2022-12-09T17:29:10.259Z,3.00
2022-12-09T17:31:38.480Z,3.10
2022-12-09T17:34:08.416Z,3.10
2022-12-09T17:39:06.070Z,3.00
2022-12-09T17:41:34.814Z,3.00
2022-12-09T17:44:03.278Z,3.00
2022-12-09T17:49:01.631Z,3.00
2022-12-09T17:51:36.025Z,3.00
2022-12-09T17:56:34.391Z,3.00
2022-12-09T17:59:08.514Z,3.00
2022-12-09T18:01:38.003Z,3.00
2022-12-09T18:04:10.347Z,2.90
2022-12-09T18:06:43.124Z,2.90
2022-12-09T18:09:14.820Z,2.90
2022-12-09T18:11:43.667Z,2.90
2022-12-09T18:14:12.075Z,2.90
2022-12-09T18:19:12.766Z,2.80
2022-12-09T18:21:42.519Z,2.80
2022-12-09T18:24:11.423Z,2.80
2022-12-09T18:29:11.240Z,2.80
2022-12-09T18:39:08.617Z,2.70
2022-12-09T18:44:07.844Z,2.70
2022-12-09T18:46:39.072Z,2.70
2022-12-09T18:49:10.002Z,2.70
2022-12-09T18:51:39.693Z,2.70
2022-12-09T18:54:10.357Z,2.60
2022-12-09T18:56:38.852Z,2.60
2022-12-09T19:01:40.952Z,2.60
2022-12-09T19:04:14.252Z,2.60
2022-12-09T19:06:44.722Z,2.50
2022-12-09T19:09:17.202Z,2.50
2022-12-09T19:11:47.932Z,2.50
2022-12-09T19:14:18.371Z,2.50
2022-12-09T19:16:47.557Z,2.50
2022-12-09T19:19:18.726Z,2.50
2022-12-09T19:21:47.647Z,2.50
2022-12-09T19:24:21.540Z,2.50
2022-12-09T19:31:50.711Z,2.50
2022-12-09T19:34:21.507Z,2.50
2022-12-09T19:36:51.974Z,2.50
2022-12-09T19:39:25.262Z,2.50
2022-12-09T19:44:44.243Z,2.50
2022-12-09T19:47:11.011Z,2.40
2022-12-09T19:54:39.523Z,2.40
2022-12-09T19:59:37.581Z,2.40
2022-12-09T20:02:07.853Z,2.40
2022-12-09T20:04:51.733Z,2.40
2022-12-09T20:07:20.829Z,2.40
2022-12-09T20:09:50.707Z,2.40
2022-12-09T20:27:13.704Z,2.40
2022-12-09T20:32:10.917Z,2.30
2022-12-09T20:37:08.285Z,2.30
2022-12-09T20:42:05.500Z,2.30
2022-12-09T20:44:35.116Z,2.30
2022-12-09T20:54:29.242Z,2.30
2022-12-09T21:01:55.909Z,2.30
2022-12-09T21:09:26.968Z,2.30
2022-12-09T21:17:04.275Z,2.20
2022-12-09T21:22:02.403Z,2.20
2022-12-09T21:32:02.951Z,2.20
2022-12-09T21:44:27.011Z,2.20
2022-12-09T21:49:25.543Z,2.20
2022-12-09T21:59:20.714Z,2.10
2022-12-09T22:01:49.027Z,2.10
2022-12-09T22:04:18.675Z,2.10
2022-12-09T22:06:51.243Z,2.10
2022-12-09T22:09:20.974Z,2.10
2022-12-09T22:16:47.284Z,2.10
2022-12-09T22:19:19.694Z,2.10
2022-12-09T22:21:50.379Z,2.10
2022-12-09T22:24:19.171Z,2.10
2022-12-09T22:29:18.235Z,2.10
2022-12-09T22:34:18.645Z,2.00
2022-12-09T22:39:21.493Z,2.00
2022-12-09T22:44:20.923Z,2.00
2022-12-09T22:51:49.387Z,2.00
2022-12-09T22:54:18.156Z,2.00
2022-12-09T22:56:46.688Z,2.00
2022-12-09T22:59:16.242Z,1.90
2022-12-09T23:01:47.281Z,1.90
2022-12-09T23:04:18.743Z,2.00
2022-12-09T23:09:21.920Z,1.90
2022-12-09T23:14:19.799Z,1.90
2022-12-09T23:16:48.119Z,1.90
2022-12-09T23:19:16.625Z,1.90
2022-12-09T23:21:45.433Z,1.90
2022-12-09T23:24:24.469Z,1.90
2022-12-09T23:26:56.374Z,1.90
2022-12-09T23:29:25.016Z,1.90
2022-12-09T23:39:20.941Z,1.90
2022-12-09T23:41:49.631Z,1.90
2022-12-09T23:44:20.055Z,1.90
2022-12-09T23:51:46.319Z,1.90
2022-12-09T23:54:17.355Z,1.90
2022-12-09T23:56:50.597Z,1.90
2022-12-09T23:59:21.604Z,1.90
